Time;durP1;ratioP1;P1;durP2;ratioP2;P2;SDS_P1;SDS_P2;PMS_P1;PMS_P2;Temp;Humidity;BMP_temperature;BMP_pressure;BME280_temperature;BME280_humidity;BME280_pressure;Samples;Min_cycle;Max_cycle;Signal;HPM_P1;HPM_P2
2022/07/22 00:02:01;;;;;;;7.07;2.00;;;;;;;17.01;100.00;102196.63;5118490;28;20047;-71
2022/07/22 00:04:26;;;;;;;12.95;2.53;;;;;;;17.03;100.00;102194.88;5114716;28;20047;-71
2022/07/22 00:06:52;;;;;;;12.57;2.60;;;;;;;17.03;100.00;102190.44;5111450;28;20027;-72
2022/07/22 00:09:18;;;;;;;4.68;1.85;;;;;;;17.04;100.00;102196.69;5099961;28;20464;-72
2022/07/22 00:11:43;;;;;;;5.70;1.70;;;;;;;16.99;100.00;102198.38;5078788;28;20081;-72
2022/07/22 00:14:08;;;;;;;6.82;1.85;;;;;;;17.00;100.00;102189.53;5097072;28;20016;-71
2022/07/22 00:16:34;;;;;;;7.35;2.50;;;;;;;17.02;100.00;102185.13;5109511;28;20111;-71
2022/07/22 00:18:59;;;;;;;9.05;2.10;;;;;;;17.03;100.00;102192.22;5105731;28;20031;-72
2022/07/22 00:21:24;;;;;;;8.95;2.00;;;;;;;17.07;100.00;102185.19;5115904;28;20110;-72
2022/07/22 00:23:50;;;;;;;7.00;1.70;;;;;;;17.08;100.00;102182.53;5117349;28;20102;-72
2022/07/22 00:26:15;;;;;;;5.88;1.98;;;;;;;17.08;100.00;102186.94;5116794;28;20035;-71
2022/07/22 00:28:41;;;;;;;11.10;1.90;;;;;;;17.07;100.00;102185.19;5094265;28;20368;-71
2022/07/22 00:31:06;;;;;;;9.00;1.60;;;;;;;17.07;100.00;102185.19;5096818;28;20028;-72
2022/07/22 00:33:31;;;;;;;6.80;1.90;;;;;;;17.11;100.00;102179.03;5096616;28;20020;-73
2022/07/22 00:35:57;;;;;;;8.52;1.90;;;;;;;17.02;100.00;102182.47;5098693;28;20360;-72
2022/07/22 00:38:22;;;;;;;16.50;2.38;;;;;;;17.03;100.00;102177.16;5110926;28;20016;-71
2022/07/22 00:40:47;;;;;;;7.38;1.85;;;;;;;17.02;100.00;102167.41;5116696;28;20053;-72
2022/07/22 00:43:13;;;;;;;13.60;2.03;;;;;;;17.03;100.00;102176.28;5093500;28;20020;-72
2022/07/22 00:45:39;;;;;;;7.25;2.00;;;;;;;17.03;100.00;102169.19;5098493;28;20035;-70
2022/07/22 00:48:04;;;;;;;11.95;2.35;;;;;;;17.06;100.00;102175.41;5096110;28;20024;-71
2022/07/22 00:50:30;;;;;;;9.25;2.10;;;;;;;17.05;100.00;102171.88;5096831;28;20106;-72
2022/07/22 00:52:55;;;;;;;8.70;2.10;;;;;;;17.05;100.00;102168.31;5095986;28;20391;-72
2022/07/22 00:55:21;;;;;;;8.88;2.40;;;;;;;17.06;100.00;102157.69;5096774;28;20036;-72
2022/07/22 00:57:46;;;;;;;9.32;2.70;;;;;;;17.05;100.00;102155.91;5096512;28;20035;-73
2022/07/22 01:00:17;;;;;;;10.52;1.58;;;;;;;17.05;100.00;102165.66;5096178;28;20031;-71
2022/07/22 01:02:43;;;;;;;6.70;1.67;;;;;;;17.05;100.00;102158.59;5095748;28;20038;-71
2022/07/22 01:05:08;;;;;;;8.85;1.85;;;;;;;17.03;100.00;102157.66;5100306;28;20446;-71
2022/07/22 01:07:34;;;;;;;6.03;1.48;;;;;;;17.06;100.00;102163.00;5095869;28;20036;-72
2022/07/22 01:09:59;;;;;;;9.13;1.88;;;;;;;17.05;100.00;102160.31;5096274;28;20020;-73
2022/07/22 01:12:25;;;;;;;7.03;1.75;;;;;;;17.02;100.00;102158.53;5110679;28;20104;-73
2022/07/22 01:14:50;;;;;;;8.18;1.90;;;;;;;17.04;100.00;102154.13;5096549;28;20026;-72
2022/07/22 01:17:16;;;;;;;6.97;1.77;;;;;;;17.09;100.00;102162.16;5095514;28;20425;-72
2022/07/22 01:19:42;;;;;;;13.70;1.80;;;;;;;17.07;100.00;102151.50;5096885;28;20035;-71
2022/07/22 01:22:07;;;;;;;8.05;2.17;;;;;;;17.06;100.00;102152.38;5109301;28;20452;-71
2022/07/22 01:24:33;;;;;;;6.32;1.60;;;;;;;17.07;100.00;102147.97;5108252;28;20023;-71
2022/07/22 01:26:58;;;;;;;10.60;1.80;;;;;;;17.08;100.00;102150.63;5098420;28;20020;-72
2022/07/22 01:29:24;;;;;;;7.28;1.95;;;;;;;17.06;100.00;102152.38;5096884;28;20039;-72
2022/07/22 01:31:49;;;;;;;11.13;1.23;;;;;;;17.07;100.00;102156.81;5109209;28;20383;-71
2022/07/22 01:34:15;;;;;;;5.45;1.50;;;;;;;17.08;100.00;102160.34;5102686;28;20024;-71
2022/07/22 01:36:40;;;;;;;9.27;2.08;;;;;;;17.09;100.00;102155.06;5076906;28;20040;-71
2022/07/22 01:39:05;;;;;;;7.28;1.60;;;;;;;17.07;100.00;102148.84;5095421;28;20020;-71
2022/07/22 01:41:31;;;;;;;11.60;1.90;;;;;;;17.06;100.00;102147.03;5107296;28;20056;-72
2022/07/22 01:43:57;;;;;;;7.38;1.60;;;;;;;17.02;100.00;102155.88;5114828;28;20110;-72
2022/07/22 01:46:23;;;;;;;11.60;1.55;;;;;;;17.01;100.00;102146.09;5099269;28;20536;-73
2022/07/22 01:48:50;;;;;;;14.57;2.88;;;;;;;17.02;100.00;102142.56;5099501;28;20488;-71
2022/07/22 01:51:15;;;;;;;6.00;1.83;;;;;;;17.00;100.00;102147.00;5099094;28;20043;-72
2022/07/22 01:53:40;;;;;;;8.95;2.10;;;;;;;16.96;100.00;102142.53;5113360;28;20027;-71
2022/07/22 01:56:06;;;;;;;6.13;1.40;;;;;;;16.97;100.00;102153.16;5102936;28;20060;-72
2022/07/22 01:58:31;;;;;;;8.75;1.70;;;;;;;16.95;100.00;102148.72;5094886;28;20023;-73
2022/07/22 02:00:57;;;;;;;6.68;1.80;;;;;;;16.95;100.00;102143.38;5104815;28;20024;-73
2022/07/22 02:03:22;;;;;;;7.15;1.52;;;;;;;16.93;100.00;102147.78;5110453;28;20066;-72
2022/07/22 02:05:47;;;;;;;9.45;1.73;;;;;;;16.92;100.00;102143.38;5112315;28;20059;-72
2022/07/22 02:08:13;;;;;;;7.00;1.63;;;;;;;16.91;100.00;102142.44;5094437;28;20028;-72
2022/07/22 02:10:39;;;;;;;8.18;1.50;;;;;;;16.86;100.00;102145.03;5102614;28;20027;-71
2022/07/22 02:13:04;;;;;;;10.65;1.73;;;;;;;16.86;100.00;102139.72;5094652;28;20028;-72
2022/07/22 02:15:30;;;;;;;9.93;2.20;;;;;;;16.87;100.00;102140.59;5098460;28;20095;-72
2022/07/22 02:17:56;;;;;;;4.97;1.30;;;;;;;16.85;100.00;102140.59;5105290;28;20035;-72
2022/07/22 02:20:21;;;;;;;7.78;1.70;;;;;;;16.86;100.00;102144.13;5096971;28;20028;-71
2022/07/22 02:22:47;;;;;;;8.98;1.55;;;;;;;16.88;100.00;102133.53;5110617;28;20031;-73
2022/07/22 02:25:13;;;;;;;9.85;2.00;;;;;;;16.88;100.00;102144.19;5099726;28;20375;-72
2022/07/22 02:27:40;;;;;;;9.30;1.80;;;;;;;16.88;100.00;102144.19;5076012;28;20161;-72
2022/07/22 02:30:06;;;;;;;5.57;1.20;;;;;;;16.88;100.00;102144.19;5097133;28;20259;-72
2022/07/22 02:32:31;;;;;;;6.95;1.90;;;;;;;16.87;100.00;102135.28;5094853;28;20059;-71
2022/07/22 02:34:57;;;;;;;4.53;1.30;;;;;;;16.85;100.00;102135.28;5094803;28;20104;-72
2022/07/22 02:37:22;;;;;;;9.15;1.83;;;;;;;16.85;100.00;102137.94;5095829;28;20466;-72
2022/07/22 02:39:47;;;;;;;6.28;1.50;;;;;;;16.85;100.00;102137.94;5104648;28;20352;-72
2022/07/22 02:42:14;;;;;;;6.03;1.45;;;;;;;16.84;100.00;102130.81;5104615;28;20050;-72
2022/07/22 02:44:40;;;;;;;5.30;1.40;;;;;;;16.87;100.00;102129.97;5112960;28;20375;-72
2022/07/22 02:47:05;;;;;;;8.70;1.90;;;;;;;16.82;100.00;102129.94;5096324;28;20023;-72
2022/07/22 02:49:31;;;;;;;5.80;1.63;;;;;;;16.80;100.00;102123.69;5099568;28;20101;-72
2022/07/22 02:51:56;;;;;;;6.30;1.70;;;;;;;16.79;100.00;102132.56;5094612;28;20356;-72
2022/07/22 02:54:21;;;;;;;9.30;1.70;;;;;;;16.77;100.00;102123.66;5100213;28;20102;-72
2022/07/22 02:56:47;;;;;;;8.65;1.70;;;;;;;16.76;100.00;102121.88;5113230;28;20505;-72
2022/07/22 02:59:12;;;;;;;9.60;1.60;;;;;;;16.76;100.00;102113.91;5099650;28;20032;-72
2022/07/22 03:01:37;;;;;;;8.73;1.33;;;;;;;16.71;100.00;102122.69;5077887;28;20043;-72
2022/07/22 03:04:03;;;;;;;3.28;1.40;;;;;;;16.73;100.00;102121.84;5094049;28;20091;-71
2022/07/22 03:06:28;;;;;;;8.85;1.55;;;;;;;16.70;100.00;102127.13;5108970;28;20102;-71
2022/07/22 03:08:53;;;;;;;5.63;1.60;;;;;;;16.73;100.00;102121.84;5108994;28;20015;-72
2022/07/22 03:11:19;;;;;;;7.60;1.90;;;;;;;16.72;100.00;102125.38;5117571;28;20036;-71
2022/07/22 03:13:44;;;;;;;8.05;1.73;;;;;;;16.67;100.00;102121.75;5118997;28;20027;-72
2022/07/22 03:16:09;;;;;;;13.88;1.77;;;;;;;16.67;100.00;102122.66;5110899;28;20035;-70
2022/07/22 03:18:35;;;;;;;5.43;2.22;;;;;;;16.66;100.00;102114.69;5101503;28;20072;-72
2022/07/22 03:21:00;;;;;;;5.97;1.52;;;;;;;16.65;100.00;102126.19;5105701;28;20023;-72
2022/07/22 03:23:26;;;;;;;7.50;1.38;;;;;;;16.68;100.00;102131.53;5105999;28;20913;-71
2022/07/22 03:25:51;;;;;;;6.15;1.63;;;;;;;16.67;100.00;102124.41;5096752;28;20028;-71
2022/07/22 03:28:16;;;;;;;8.90;1.90;;;;;;;16.67;100.00;102132.38;5112886;28;20363;-72
2022/07/22 03:30:42;;;;;;;8.98;1.45;;;;;;;16.68;100.00;102126.22;5091907;28;20084;-72
2022/07/22 03:33:07;;;;;;;6.40;1.52;;;;;;;16.69;100.00;102133.31;5110022;28;20050;-71
2022/07/22 03:35:32;;;;;;;7.68;1.42;;;;;;;16.66;100.00;102128.84;5099324;28;20069;-71
2022/07/22 03:37:58;;;;;;;5.05;1.50;;;;;;;16.67;100.00;102127.06;5103732;28;20016;-72
2022/07/22 03:40:23;;;;;;;5.20;1.92;;;;;;;16.64;100.00;102129.69;5114501;28;20103;-71
2022/07/22 03:42:48;;;;;;;8.35;2.03;;;;;;;16.66;100.00;102120.88;5111464;28;20019;-73
2022/07/22 03:45:14;;;;;;;5.32;1.63;;;;;;;16.64;100.00;102121.72;5098196;28;20463;-72
2022/07/22 03:47:40;;;;;;;9.98;1.60;;;;;;;16.67;100.00;102122.66;5114573;28;20043;-71
2022/07/22 03:50:06;;;;;;;6.50;1.65;;;;;;;16.65;100.00;102124.41;5118224;28;20027;-72
2022/07/22 03:52:31;;;;;;;6.88;1.70;;;;;;;16.65;100.00;102123.53;5117379;28;20394;-72
2022/07/22 03:54:56;;;;;;;7.80;1.83;;;;;;;16.65;100.00;102118.22;5108661;28;20023;-72
2022/07/22 03:57:22;;;;;;;7.32;1.40;;;;;;;16.69;100.00;102126.22;5102599;28;20042;-71
2022/07/22 03:59:47;;;;;;;5.07;1.45;;;;;;;16.63;100.00;102125.25;5097695;28;20050;-72
2022/07/22 04:02:13;;;;;;;3.38;1.35;;;;;;;16.65;100.00;102134.16;5104107;28;20019;-72
2022/07/22 04:04:38;;;;;;;4.63;1.60;;;;;;;16.66;100.00;102127.97;5109449;28;20053;-72
2022/07/22 04:07:04;;;;;;;6.55;1.42;;;;;;;16.70;100.00;102132.44;5096911;28;20111;-71
2022/07/22 04:09:29;;;;;;;7.25;1.67;;;;;;;16.68;100.00;102135.09;5098898;28;20024;-71
2022/07/22 04:11:55;;;;;;;7.63;1.63;;;;;;;16.65;100.00;102134.16;5117272;28;20051;-72
2022/07/22 04:14:20;;;;;;;6.07;1.70;;;;;;;16.63;100.00;102136.78;5116678;28;20046;-73
2022/07/22 04:16:45;;;;;;;8.80;1.50;;;;;;;16.61;100.00;102133.22;5111608;28;20072;-72
2022/07/22 04:19:11;;;;;;;10.73;2.20;;;;;;;16.62;100.00;102129.69;5109977;28;20054;-72
2022/07/22 04:21:36;;;;;;;8.98;1.40;;;;;;;16.62;100.00;102134.13;5117249;28;20031;-72
2022/07/22 04:24:02;;;;;;;4.32;1.50;;;;;;;16.65;100.00;102132.38;5105118;28;20368;-72
2022/07/22 04:26:28;;;;;;;3.50;1.50;;;;;;;16.66;100.00;102130.63;5110233;28;20082;-72
2022/07/22 04:28:53;;;;;;;4.45;1.38;;;;;;;16.69;100.00;102128.00;5098308;28;20069;-72
2022/07/22 04:31:19;;;;;;;6.68;1.70;;;;;;;16.66;100.00;102125.31;5098826;28;20341;-72
2022/07/22 04:33:44;;;;;;;3.88;1.48;;;;;;;16.68;100.00;102128.88;5108261;28;20065;-72
2022/07/22 04:36:10;;;;;;;3.38;1.42;;;;;;;16.69;100.00;102123.56;5099275;28;20111;-73
2022/07/22 04:38:35;;;;;;;4.03;1.33;;;;;;;16.72;100.00;102122.72;5115896;28;20461;-72
2022/07/22 04:41:00;;;;;;;3.22;1.10;;;;;;;16.72;100.00;102125.38;5103389;28;20034;-72
2022/07/22 04:43:26;;;;;;;5.47;1.30;;;;;;;16.74;100.00;102118.31;5114951;28;20481;-72
2022/07/22 04:45:51;;;;;;;9.40;1.40;;;;;;;16.73;100.00;102113.88;5115238;28;20156;-72
2022/07/22 04:48:17;;;;;;;8.77;1.48;;;;;;;16.76;100.00;102116.56;5104301;28;20031;-72
2022/07/22 04:50:43;;;;;;;7.18;1.77;;;;;;;16.78;100.00;102109.50;5102838;28;20039;-71
2022/07/22 04:53:09;;;;;;;7.60;1.23;;;;;;;16.81;100.00;102122.81;5095409;28;20028;-72
2022/07/22 04:55:35;;;;;;;1.98;1.10;;;;;;;16.84;100.00;102117.53;5104193;28;20117;-72
2022/07/22 04:58:00;;;;;;;5.55;1.70;;;;;;;16.81;100.00;102121.94;5096541;28;20131;-73
2022/07/22 05:00:25;;;;;;;5.18;1.02;;;;;;;16.85;100.00;102116.66;5095347;28;20027;-72
2022/07/22 05:02:51;;;;;;;4.80;1.20;;;;;;;16.93;100.00;102123.84;5109654;28;20050;-71
2022/07/22 05:05:16;;;;;;;4.55;1.10;;;;;;;16.94;100.00;102125.66;5085576;28;20031;-72
2022/07/22 05:07:42;;;;;;;2.22;1.25;;;;;;;16.96;100.00;102130.09;5094912;28;20036;-73
2022/07/22 05:10:07;;;;;;;10.23;1.77;;;;;;;17.01;100.00;102124.81;5096056;28;20150;-72
2022/07/22 05:12:33;;;;;;;3.75;1.30;;;;;;;17.01;100.00;102123.06;5094936;28;20168;-73
2022/07/22 05:14:58;;;;;;;6.30;1.65;;;;;;;17.05;100.00;102117.78;5095108;28;20035;-72
2022/07/22 05:17:24;;;;;;;8.70;1.30;;;;;;;17.05;100.00;102117.78;5102869;28;20072;-72
2022/07/22 05:19:49;;;;;;;5.43;1.30;;;;;;;17.07;100.00;102116.91;5109027;28;20024;-73
2022/07/22 05:22:14;;;;;;;3.40;1.40;;;;;;;17.05;100.00;102121.34;5110492;28;20028;-72
2022/07/22 05:24:40;;;;;;;5.88;1.60;;;;;;;17.03;100.00;102120.44;5067856;28;20197;-72
2022/07/22 05:27:05;;;;;;;4.88;1.23;;;;;;;17.10;100.00;102121.38;5099057;28;20414;-72
2022/07/22 05:29:30;;;;;;;5.72;1.35;;;;;;;17.08;100.00;102120.47;5094803;28;20375;-73
2022/07/22 05:31:56;;;;;;;6.68;1.52;;;;;;;17.12;100.00;102115.22;5098414;28;20382;-72
2022/07/22 05:34:21;;;;;;;6.63;1.05;;;;;;;17.05;100.00;102113.38;5102738;28;20085;-72
2022/07/22 05:36:47;;;;;;;3.42;1.23;;;;;;;17.08;100.00;102118.72;5110778;28;20119;-72
2022/07/22 05:39:12;;;;;;;4.60;0.88;;;;;;;17.13;100.00;102124.97;5076289;28;20023;-72
2022/07/22 05:41:38;;;;;;;3.20;1.27;;;;;;;17.14;100.00;102123.19;5112417;28;20045;-72
2022/07/22 05:44:04;;;;;;;6.20;1.55;;;;;;;17.17;100.00;102118.81;5096130;28;20493;-72
2022/07/22 05:46:29;;;;;;;3.85;1.10;;;;;;;17.17;100.00;102118.81;5097297;28;20028;-73
2022/07/22 05:48:54;;;;;;;4.97;1.40;;;;;;;17.15;100.00;102123.22;5109159;28;20024;-72
2022/07/22 05:51:20;;;;;;;6.88;1.20;;;;;;;17.23;100.00;102125.94;5112240;28;20459;-71
2022/07/22 05:53:45;;;;;;;4.65;1.67;;;;;;;17.27;100.00;102132.16;5110979;28;20111;-72
2022/07/22 05:56:11;;;;;;;3.33;1.30;;;;;;;17.28;100.00;102133.97;5104463;28;20165;-73
2022/07/22 05:58:37;;;;;;;6.78;1.33;;;;;;;17.32;100.00;102117.16;5076108;28;20020;-73
2022/07/22 06:01:03;;;;;;;6.95;1.40;;;;;;;17.39;100.00;102124.34;5103621;28;20383;-72
2022/07/22 06:03:29;;;;;;;7.53;1.58;;;;;;;17.45;100.00;102119.03;5103021;28;20035;-72
2022/07/22 06:05:54;;;;;;;5.25;1.35;;;;;;;17.46;100.00;102126.16;5096251;28;20520;-72
2022/07/22 06:08:19;;;;;;;5.25;1.20;;;;;;;17.50;100.00;102122.63;5093899;28;20024;-72
2022/07/22 06:10:45;;;;;;;5.13;1.00;;;;;;;17.59;100.00;102115.59;5113290;28;20091;-72
2022/07/22 06:13:10;;;;;;;4.22;1.27;;;;;;;17.65;100.00;102121.00;5103901;28;20061;-72
2022/07/22 06:15:36;;;;;;;6.95;1.42;;;;;;;17.66;100.00;102120.09;5105818;28;20028;-72
2022/07/22 06:18:01;;;;;;;6.75;1.40;;;;;;;17.71;100.00;102121.03;5101266;28;20020;-72
2022/07/22 06:20:26;;;;;;;6.38;1.58;;;;;;;17.76;100.00;102118.41;5106300;28;20023;-72
2022/07/22 06:22:52;;;;;;;4.47;1.02;;;;;;;17.84;100.00;102114.91;5104658;28;20125;-73
2022/07/22 06:25:17;;;;;;;8.07;1.30;;;;;;;17.86;100.00;102113.16;5105091;28;20074;-72
2022/07/22 06:27:43;;;;;;;8.02;1.42;;;;;;;17.87;100.00;102114.91;5093576;28;20056;-71
2022/07/22 06:30:09;;;;;;;6.97;1.25;;;;;;;17.86;100.00;102106.94;5095806;28;20106;-71
2022/07/22 06:32:34;;;;;;;7.28;1.20;;;;;;;17.88;100.00;102110.50;5111039;28;20057;-72
2022/07/22 06:34:59;;;;;;;6.30;1.23;;;;;;;17.98;100.00;102124.78;5100433;28;20024;-73
2022/07/22 06:37:25;;;;;;;6.57;1.10;;;;;;;17.91;100.00;102123.81;5095387;28;20047;-71
2022/07/22 06:39:50;;;;;;;6.38;1.55;;;;;;;18.06;100.00;102132.84;5109322;28;20015;-71
2022/07/22 06:42:15;;;;;;;4.78;1.23;;;;;;;18.09;100.00;102141.72;5104244;28;20109;-71
2022/07/22 06:44:41;;;;;;;3.95;1.17;;;;;;;18.11;100.00;102136.41;5104085;28;20035;-72
2022/07/22 06:47:06;;;;;;;6.40;1.35;;;;;;;18.13;100.00;102130.19;5101675;28;20023;-72
2022/07/22 06:49:31;;;;;;;3.10;1.40;;;;;;;18.13;100.00;102130.19;5113785;28;20028;-72
2022/07/22 06:51:57;;;;;;;5.88;1.40;;;;;;;18.12;100.00;102132.88;5105645;28;20020;-72
2022/07/22 06:54:22;;;;;;;8.15;1.45;;;;;;;18.19;100.00;102124.94;5100389;28;20455;-73
2022/07/22 06:56:47;;;;;;;8.50;1.20;;;;;;;18.27;100.00;102126.72;5093176;28;20399;-74
2022/07/22 06:59:13;;;;;;;9.93;1.52;;;;;;;18.23;100.00;102132.91;5075210;28;20081;-72
2022/07/22 07:01:38;;;;;;;6.72;1.45;;;;;;;18.19;100.00;102126.69;5097882;28;20051;-72
2022/07/22 07:04:04;;;;;;;7.97;1.60;;;;;;;18.08;100.00;102131.97;5097509;28;20470;-72
2022/07/22 07:06:29;;;;;;;6.95;1.55;;;;;;;18.07;100.00;102130.19;5093273;28;20028;-72
2022/07/22 07:08:57;;;;;;;4.90;1.77;;;;;;;18.11;100.00;102134.66;5107227;28;20052;-72
2022/07/22 07:11:22;;;;;;;10.93;1.38;;;;;;;18.00;100.00;102133.66;5104506;28;20571;-72
2022/07/22 07:13:48;;;;;;;6.90;1.30;;;;;;;18.06;100.00;102133.72;5093179;28;20063;-72
2022/07/22 07:16:13;;;;;;;5.97;1.67;;;;;;;18.10;100.00;102127.53;5092969;28;20111;-73
2022/07/22 07:18:38;;;;;;;3.47;1.27;;;;;;;17.95;100.00;102140.75;5107043;28;20103;-73
2022/07/22 07:21:04;;;;;;;8.15;1.83;;;;;;;18.02;100.00;102131.91;5101440;28;20035;-72
2022/07/22 07:23:29;;;;;;;5.03;1.30;;;;;;;18.04;100.00;102138.13;5098848;28;20103;-73
2022/07/22 07:25:55;;;;;;;3.88;1.30;;;;;;;17.94;100.00;102134.53;5078018;28;20028;-73
2022/07/22 07:28:20;;;;;;;8.40;1.50;;;;;;;17.97;100.00;102138.97;5092909;28;20020;-73
2022/07/22 07:30:46;;;;;;;7.18;1.35;;;;;;;18.01;100.00;102133.72;5074816;28;20032;-73
2022/07/22 07:33:12;;;;;;;5.63;1.25;;;;;;;18.01;100.00;102131.03;5105710;28;20050;-72
2022/07/22 07:35:37;;;;;;;5.90;1.30;;;;;;;18.10;100.00;102130.19;5110546;28;20387;-72
2022/07/22 07:38:03;;;;;;;7.15;1.50;;;;;;;18.06;100.00;102133.72;5104282;28;20064;-72
2022/07/22 07:40:28;;;;;;;5.13;1.50;;;;;;;18.14;100.00;102139.09;5105641;28;20101;-71
2022/07/22 07:42:54;;;;;;;7.30;1.60;;;;;;;18.02;100.00;102142.56;5074783;28;20028;-72
2022/07/22 07:45:19;;;;;;;3.92;1.60;;;;;;;18.00;100.00;102141.66;5095732;28;20039;-72
2022/07/22 07:47:45;;;;;;;5.63;1.80;;;;;;;17.92;100.00;102135.41;5092436;28;20459;-72
2022/07/22 07:50:11;;;;;;;3.85;1.10;;;;;;;17.97;100.00;102138.97;5096931;28;20019;-71
2022/07/22 07:52:41;;;;;;;5.43;1.95;;;;;;;18.04;100.00;102135.47;5110773;28;20497;-71
2022/07/22 07:55:08;;;;;;;8.98;1.30;;;;;;;18.09;100.00;102139.06;5098817;28;20463;-73
2022/07/22 07:57:34;;;;;;;6.07;1.65;;;;;;;18.28;100.00;102125.84;5094200;28;20075;-71
2022/07/22 07:59:59;;;;;;;17.77;1.63;;;;;;;18.30;100.00;102118.75;5111535;28;20110;-72
2022/07/22 08:02:25;;;;;;;4.93;1.40;;;;;;;18.31;100.00;102116.13;5112667;28;20029;-73
2022/07/22 08:04:50;;;;;;;6.00;1.70;;;;;;;18.39;100.00;102124.13;5108838;28;20422;-72
2022/07/22 08:07:16;;;;;;;6.22;1.63;;;;;;;18.57;100.00;102119.75;5096126;28;20388;-72
2022/07/22 08:09:41;;;;;;;4.78;1.50;;;;;;;18.67;100.00;102113.59;5096066;28;20032;-72
2022/07/22 08:12:07;;;;;;;9.05;1.20;;;;;;;18.68;100.00;102112.69;5113500;28;20035;-72
2022/07/22 08:14:32;;;;;;;4.45;1.10;;;;;;;18.65;100.00;102110.00;5116487;28;20069;-72
2022/07/22 08:16:58;;;;;;;2.97;1.33;;;;;;;18.65;100.00;102115.34;5115898;28;20032;-72
2022/07/22 08:19:24;;;;;;;3.70;1.27;;;;;;;18.65;100.00;102107.34;5108884;28;20018;-72
2022/07/22 08:21:49;;;;;;;5.05;1.73;;;;;;;18.64;100.00;102114.47;5097679;28;20107;-72
2022/07/22 08:24:15;;;;;;;7.15;1.20;;;;;;;18.53;100.00;102116.22;5098225;28;20027;-71
2022/07/22 08:26:40;;;;;;;4.05;1.00;;;;;;;18.79;100.00;102105.63;5108590;28;20069;-72
2022/07/22 08:29:07;;;;;;;5.97;1.40;;;;;;;18.81;100.00;102100.28;5114546;28;20028;-71
2022/07/22 08:31:34;;;;;;;5.90;1.42;;;;;;;18.92;100.00;102106.56;5116492;28;20034;-72
2022/07/22 08:34:00;;;;;;;6.35;1.35;;;;;;;19.09;100.00;102098.59;5116316;28;20027;-71
2022/07/22 08:36:26;;;;;;;4.13;1.30;;;;;;;19.15;100.00;102092.38;5101041;28;20467;-72
2022/07/22 08:38:52;;;;;;;2.88;1.42;;;;;;;19.21;100.00;102103.94;5112468;28;20100;-71
2022/07/22 08:41:18;;;;;;;5.53;1.40;;;;;;;19.26;100.00;102098.63;5105241;28;20103;-72
2022/07/22 08:43:46;;;;;;;3.25;1.13;;;;;;;19.40;100.00;102092.38;5093117;28;20118;-72
2022/07/22 08:46:12;;;;;;;7.03;1.27;;;;;;;19.41;100.00;102099.50;5114302;28;20043;-73
2022/07/22 08:48:39;;;;;;;6.28;1.25;;;;;;;19.33;100.00;102102.16;5085960;28;20028;-71
2022/07/22 08:51:05;;;;;;;3.53;1.17;;;;;;;19.59;100.00;102104.84;5110214;28;20027;-71
2022/07/22 08:53:31;;;;;;;4.95;1.10;;;;;;;19.74;100.00;102098.59;5112476;28;20463;-71
2022/07/22 08:55:58;;;;;;;4.10;1.20;;;;;;;19.87;100.00;102084.34;5108627;28;20027;-72
2022/07/22 08:58:24;;;;;;;4.97;1.10;;;;;;;19.89;100.00;102087.00;5103790;28;20047;-71
2022/07/22 09:01:11;;;;;;;6.53;1.20;;;;;;;19.70;100.00;102091.47;5094682;28;20028;-70
2022/07/22 09:03:51;;;;;;;4.93;1.17;;;;;;;19.55;100.00;102090.59;5114964;28;20115;-71
2022/07/22 09:06:20;;;;;;;6.32;1.20;;;;;;;19.55;100.00;102093.25;5111911;28;20050;-71
2022/07/22 09:08:59;;;;;;;8.43;1.73;;;;;;;19.75;100.00;102096.78;5114353;28;20039;-72
2022/07/22 09:11:28;;;;;;;4.78;1.60;;;;;;;20.06;100.00;102092.28;5097134;28;20043;-72
2022/07/22 09:13:55;;;;;;;6.10;1.40;;;;;;;20.28;100.00;102085.13;5113611;28;20015;-71
2022/07/22 09:16:45;;;;;;;3.65;1.20;;;;;;;20.37;100.00;102084.19;5108922;28;20050;-72
2022/07/22 09:19:11;;;;;;;7.43;1.58;;;;;;;20.23;100.00;102081.56;5111797;28;20058;-71
2022/07/22 09:21:39;;;;;;;5.47;1.00;;;;;;;20.42;100.00;102058.31;5096348;28;20035;-72
2022/07/22 09:24:05;;;;;;;5.40;1.40;;;;;;;20.67;100.00;102066.19;5113040;28;20076;-72
2022/07/22 09:26:33;;;;;;;4.53;1.10;;;;;;;20.78;100.00;102074.19;5101763;28;20024;-72
2022/07/22 09:28:58;;;;;;;7.88;1.40;;;;;;;20.77;100.00;102078.66;5095748;28;20031;-71
2022/07/22 09:31:30;;;;;;;5.03;1.20;;;;;;;20.71;100.00;102084.94;5103827;28;20023;-69
2022/07/22 09:33:56;;;;;;;4.30;1.10;;;;;;;20.46;100.00;102088.59;5102803;28;20023;-70
2022/07/22 09:36:22;;;;;;;8.68;1.50;;;;;;;20.27;100.00;102093.16;5106055;28;20084;-71
2022/07/22 09:38:48;;;;;;;4.88;1.50;;;;;;;20.24;100.00;102095.81;5114096;28;20477;-73
2022/07/22 09:41:14;;;;;;;8.35;1.85;;;;;;;19.75;100.00;102092.38;5114810;28;20149;-71
2022/07/22 09:43:39;;;;;;;4.60;1.40;;;;;;;19.87;100.00;102097.72;5111916;28;20114;-72
2022/07/22 09:46:05;;;;;;;6.65;1.77;;;;;;;19.75;100.00;102100.38;5094756;28;20023;-72
2022/07/22 09:48:31;;;;;;;6.57;1.33;;;;;;;19.64;100.00;102096.81;5097825;28;20028;-73
2022/07/22 09:50:58;;;;;;;3.40;1.48;;;;;;;19.53;100.00;102100.41;5112555;28;20417;-71
2022/07/22 09:53:28;;;;;;;4.80;1.38;;;;;;;19.72;100.00;102105.69;5108046;28;20039;-72
2022/07/22 09:55:55;;;;;;;3.90;1.17;;;;;;;19.94;100.00;102105.69;5106893;28;20023;-72
2022/07/22 09:58:20;;;;;;;5.95;1.70;;;;;;;20.04;100.00;102104.78;5075809;28;20040;-72
2022/07/22 10:00:47;;;;;;;7.32;1.27;;;;;;;20.15;100.00;102097.63;5111554;28;20027;-71
2022/07/22 10:03:21;;;;;;;4.15;1.63;;;;;;;20.27;100.00;102109.19;5102470;28;20096;-72
2022/07/22 10:05:47;;;;;;;3.28;1.13;;;;;;;20.38;100.00;102107.34;5102354;28;20034;-71
2022/07/22 10:08:12;;;;;;;3.30;1.23;;;;;;;20.44;100.00;102107.31;5105144;28;20032;-75
2022/07/22 10:10:39;;;;;;;6.40;1.60;;;;;;;20.45;100.00;102109.09;5091002;28;20038;-75
2022/07/22 10:13:06;;;;;;;6.38;2.08;;;;;;;20.52;100.00;102105.50;5103455;28;20022;-73
2022/07/22 10:15:33;;;;;;;4.40;1.42;;;;;;;20.55;100.00;102108.16;5112975;28;20027;-76
2022/07/22 10:18:01;;;;;;;5.00;1.42;;;;;;;20.68;100.00;102103.66;5106017;28;20091;-75
2022/07/22 10:20:29;;;;;;;7.00;1.33;;;;;;;20.82;100.00;102103.59;5098178;28;20098;-74
2022/07/22 10:22:56;;;;;;;8.35;1.30;;;;;;;20.49;100.00;102099.28;5104225;28;20020;-73
2022/07/22 10:25:25;;;;;;;3.63;1.13;;;;;;;20.77;100.00;102101.81;5109843;28;20020;-76
2022/07/22 10:27:55;;;;;;;7.00;1.90;;;;;;;20.69;100.00;102105.44;5106541;28;20481;-74
2022/07/22 10:30:26;;;;;;;5.60;1.58;;;;;;;20.64;100.00;102117.91;5104279;28;20523;-75
2022/07/22 10:33:14;;;;;;;6.80;1.42;;;;;;;20.77;100.00;102104.50;5105355;28;20041;-74
2022/07/22 10:35:56;;;;;;;4.22;1.40;;;;;;;20.75;97.40;102109.88;5105261;28;20055;-74
2022/07/22 10:38:22;;;;;;;5.90;1.85;;;;;;;20.79;98.82;102113.41;5113936;28;20054;-74
2022/07/22 10:40:53;;;;;;;6.15;1.60;;;;;;;20.79;98.60;102113.41;5113465;28;20077;-74
2022/07/22 10:43:21;;;;;;;4.15;1.42;;;;;;;20.76;95.08;102114.31;5111568;28;20501;-75
2022/07/22 10:45:49;;;;;;;4.63;1.33;;;;;;;20.72;97.86;102113.44;5103991;28;20102;-75
2022/07/22 10:48:19;;;;;;;2.63;1.40;;;;;;;20.70;97.50;102101.88;5113620;28;20122;-75
2022/07/22 10:50:49;;;;;;;3.28;1.10;;;;;;;20.87;100.00;102103.56;5095933;28;20015;-74
2022/07/22 10:53:23;;;;;;;4.93;1.42;;;;;;;20.89;100.00;102101.78;5092337;28;20080;-73
2022/07/22 10:55:59;;;;;;;6.82;1.60;;;;;;;21.02;100.00;102091.88;5104867;28;20030;-74
2022/07/22 10:58:34;;;;;;;4.35;1.63;;;;;;;21.47;100.00;102095.06;5104172;28;20062;-74
2022/07/22 11:01:05;;;;;;;5.30;1.30;;;;;;;21.89;100.00;102079.53;5111555;28;20026;-73
2022/07/22 11:03:31;;;;;;;13.95;1.80;;;;;;;22.31;100.00;102070.97;5110871;28;20040;-74
2022/07/22 11:06:12;;;;;;;5.40;1.25;;;;;;;22.72;100.00;102063.28;5103199;28;20032;-73
2022/07/22 11:08:37;;;;;;;10.93;1.48;;;;;;;22.95;96.66;102067.44;5095391;28;20077;-74
2022/07/22 11:11:02;;;;;;;2.35;1.20;;;;;;;23.14;97.27;102076.09;5094495;28;20041;-75
2022/07/22 11:13:32;;;;;;;6.32;1.52;;;;;;;22.97;94.25;102071.88;5081093;28;20437;-74